Nearby METAR Reports

 

KBFI - Seattle/Boeing, Washington, USA
Distance from station: S 10mi, 16km
Updated: Sun, 26-Jan-2020 5:53am PST
Mostly cloudy
Mostly cloudy
 Wind from SSE
Wind: SSE 13 mph , 20 km/h
Temperature: 48°F , 9°C
Wind Chill: 43°F , 6°C
Dew Point: 45°F , 7°C
Humidity: 87%
Barometer: 29.85 inHg , 1010.8 hPa
Clouds: Mostly cloudy
Visibility: 10 miles , 16 km
Cloud details: Mostly cloudy 3300 ft
2020/01/26 13:53 KBFI 261353Z 16011KT 10SM BKN033 09/07 A2985 RMK AO2 RAB1258E11 SLP109 P0000 T00890072
KRNT - Renton, Washington, USA
Distance from station: SSE 14mi, 23km
Updated: Sun, 26-Jan-2020 6:16am PST
Overcast
Overcast
 Wind from SE
Wind: SE 3 mph , 6 km/h
Temperature: 46°F , 8°C
Dew Point: 45°F , 7°C
Humidity: 93%
Barometer: 29.87 inHg , 1011.5 hPa
Clouds: Overcast
Visibility: 10 miles , 16 km
Cloud details: Partly cloudy 2500 ft
Mostly cloudy 3900 ft
Overcast 4600 ft
2020/01/26 14:16 KRNT 261416Z AUTO 14003KT 10SM SCT025 BKN039 OVC046 08/07 A2987 RMK AO2 T00830067 $
 
KPAE - Everett, Washington, USA
Distance from station: N 15mi, 25km
Updated: Sun, 26-Jan-2020 6:00am PST
Overcast
Overcast
 Wind from SSE
Wind: SSE 15 mph , 24 km/h, Gust: 21 mph , 33 km/h
Temperature: 46°F , 8°C
Wind Chill: 40°F , 4°C
Dew Point: 45°F , 7°C
Humidity: 93%
Barometer: 29.82 inHg , 1009.8 hPa
Clouds: Overcast
Visibility: 10 miles , 16 km
Cloud details: Mostly cloudy 1200 ft
Overcast 1700 ft
2020/01/26 14:00 KPAE 261400Z AUTO 15013G18KT 10SM BKN012 OVC017 08/07 A2982 RMK AO2 T00830072
KSEA - Seattle/Metro, Washington, USA
Distance from station: S 17mi, 27km
Updated: Sun, 26-Jan-2020 5:53am PST
Mostly cloudy
Mostly cloudy
 Wind from S
Wind: S 9 mph , 15 km/h
Temperature: 48°F , 9°C
Wind Chill: 44°F , 7°C
Dew Point: 46°F , 8°C
Humidity: 94%
Barometer: 29.85 inHg , 1010.8 hPa
Clouds: Mostly cloudy
Visibility: 10 miles , 16 km
Cloud details: Partly cloudy 1400 ft
Mostly cloudy 4200 ft
2020/01/26 13:53 KSEA 261353Z 17008KT 10SM SCT014 BKN042 09/08 A2985 RMK AO2 RAE24 SLP116 P0004 T00940078
 
KPWT - Bremerton Ntnl, Washington, USA
Distance from station: SW 24mi, 39km
Updated: Sun, 26-Jan-2020 6:09am PST
Light rain, Mostly cloudy
Light rain, Mostly cloudy
 Wind from SSW
Wind: SSW 21 mph , 33 km/h, Gust: 29 mph , 46 km/h
Temperature: 46°F , 8°C
Wind Chill: 38°F , 3°C
Dew Point: 46°F , 8°C
Humidity: 100%
Barometer: 29.84 inHg , 1010.5 hPa
Summary: Light rain
Clouds: Mostly cloudy
Visibility: 10 miles , 16 km
Cloud details: Few Clouds 600 ft
Partly cloudy 3400 ft
Mostly cloudy 4400 ft
2020/01/26 14:09 KPWT 261409Z AUTO 21018G25KT 10SM -RA FEW006 SCT034 BKN044 08/08 A2984 RMK AO2 P0000
KTIW - Tacoma, Washington, USA
Distance from station: SSW 32mi, 52km
Updated: Sun, 26-Jan-2020 6:00am PST
Partly cloudy
Partly cloudy
 Wind from SSW
Wind: SSW 9 mph , 15 km/h
Temperature: 46°F , 8°C
Wind Chill: 41°F , 5°C
Dew Point: 46°F , 8°C
Humidity: 100%
Barometer: 29.86 inHg , 1011.2 hPa
Clouds: Partly cloudy
Visibility: 10 miles , 16 km
Cloud details: Few Clouds 1600 ft
Partly cloudy 9000 ft
2020/01/26 14:00 KTIW 261400Z AUTO 20008KT 10SM FEW016 SCT090 08/08 A2986 RMK AO2 T00830078 $
 
KAWO - Arlington Muni, Washington, USA
Distance from station: N 33mi, 54km
Updated: Sun, 26-Jan-2020 5:56am PST
Light rain, Overcast
Light rain, Overcast
 Wind from calm
Wind: Calm
Temperature: 46°F , 8°C
Dew Point: 45°F , 7°C
Humidity: 93%
Barometer: 29.84 inHg , 1010.5 hPa
Summary: Light rain
Clouds: Overcast
Visibility: 10 miles , 16 km
Cloud details: Overcast 2400 ft
2020/01/26 13:56 KAWO 261356Z AUTO 00000KT 10SM -RA OVC024 08/07 A2984 RMK AO2 SLP109 P0004 T00780072
KTCM - Tacoma/Mc Chord, Washington, USA
Distance from station: S 41mi, 65km
Updated: Sun, 26-Jan-2020 5:58am PST
Mostly cloudy
Mostly cloudy
 Wind from S
Wind: S 9 mph , 15 km/h
Temperature: 48°F , 9°C
Wind Chill: 44°F , 7°C
Dew Point: 48°F , 9°C
Humidity: 100%
Barometer: 29.87 inHg , 1011.5 hPa
Clouds: Mostly cloudy
Visibility: 10 miles , 16 km
Cloud details: Mostly cloudy 2200 ft
Mostly cloudy 2800 ft
2020/01/26 13:58 KTCM 261358Z AUTO 17008KT 10SM BKN022 BKN028 09/09 A2987 RMK AO2 CIG 019 RWY34 SLP120 T00890089 $
 
KPLU - Puyallup/Thun, Washington, USA
Distance from station: S 41mi, 66km
Updated: Sun, 26-Jan-2020 6:15am PST
Overcast
Overcast
 Wind from varies
Wind: varies 6 mph , 9 km/h
Temperature: 48°F , 9°C
Wind Chill: 45°F , 7°C
Dew Point: 46°F , 8°C
Humidity: 94%
Barometer: 29.89 inHg , 1012.2 hPa
Clouds: Overcast
Visibility: 10 miles , 16 km
Cloud details: Few Clouds 3200 ft
Partly cloudy 4300 ft
Overcast 10000 ft
2020/01/26 14:15 KPLU 261415Z AUTO VRB05KT 10SM FEW032 SCT043 OVC100 09/08 A2989 RMK AO2
KGRF - Fort Lewis/Gray, Washington, USA
Distance from station: SSW 45mi, 72km
Updated: Sun, 26-Jan-2020 5:58am PST
Mostly cloudy
Mostly cloudy
 Wind from SSE
Wind: SSE 10 mph , 17 km/h
Temperature: 48°F , 9°C
Wind Chill: 44°F , 7°C
Dew Point: 48°F , 9°C
Humidity: 100%
Barometer: 29.86 inHg , 1011.2 hPa
Clouds: Mostly cloudy
Visibility: 10 miles , 16 km
Cloud details: Partly cloudy 1500 ft
Mostly cloudy 2100 ft
2020/01/26 13:58 KGRF 261358Z 15009KT 10SM SCT015 BKN021 09/09 A2986 RMK AO2A SLP116 T00900090 $
 
KNUW - Whidbey Is. Nas, Washington, USA
Distance from station: NNW 48mi, 77km
Updated: Sun, 26-Jan-2020 5:56am PST
Overcast
Overcast
 Wind from SE
Wind: SE 26 mph , 43 km/h, Gust: 40 mph , 65 km/h
Temperature: 54°F , 12°C
Dew Point: 45°F , 7°C
Humidity: 72%
Barometer: 29.79 inHg , 1008.8 hPa
Clouds: Overcast
Visibility: 10 miles , 16 km
Cloud details: Partly cloudy 2600 ft
Mostly cloudy 3500 ft
Overcast 12000 ft
2020/01/26 13:56 KNUW 261356Z 14023G35KT 10SM SCT026 BKN035 OVC120 12/07 A2979 RMK AO2 PK WND 15035/1350 SLP088 T01170067
KSHN - Shelton, Washington, USA
Distance from station: SW 50mi, 80km
Updated: Sun, 26-Jan-2020 6:15am PST
Light rain, Overcast
Light rain, Overcast
 Wind from SW
Wind: SW 14 mph , 22 km/h
Temperature: 48°F , 9°C
Wind Chill: 42°F , 6°C
Dew Point: 46°F , 8°C
Humidity: 94%
Barometer: 29.84 inHg , 1010.5 hPa
Summary: Light rain
Clouds: Overcast
Visibility: 7 miles , 11 km
Cloud details: Partly cloudy 1300 ft
Mostly cloudy 2100 ft
Overcast 2800 ft
2020/01/26 14:15 KSHN 261415Z AUTO 23012KT 7SM -RA SCT013 BKN021 OVC028 09/08 A2984 RMK AO2 P0002 T00890078